createdAt,value
2017-10-23T00:02:34.230Z,3.00
2017-10-23T00:05:09.800Z,2.80
2017-10-23T00:07:45.903Z,2.40
2017-10-23T00:10:37.797Z,2.00
2017-10-23T00:19:12.400Z,2.80
2017-10-23T00:21:45.931Z,1.73
2017-10-23T00:24:18.123Z,2.17
2017-10-23T00:26:54.579Z,2.13
2017-10-23T00:29:26.402Z,2.40
2017-10-23T00:31:58.899Z,2.57
2017-10-23T00:34:32.797Z,2.57
2017-10-23T00:37:08.608Z,2.33
2017-10-23T00:39:42.441Z,2.27
2017-10-23T00:42:23.757Z,2.10
2017-10-23T00:44:58.738Z,2.57
2017-10-23T00:47:31.979Z,2.10
2017-10-23T00:50:07.519Z,2.10
2017-10-23T00:52:39.103Z,2.13
2017-10-23T00:55:13.144Z,2.60
2017-10-23T00:57:48.481Z,2.50
2017-10-23T01:00:23.676Z,2.03
2017-10-23T01:02:57.476Z,2.80
2017-10-23T01:05:30.351Z,2.40
2017-10-23T01:08:04.972Z,2.97
2017-10-23T01:10:37.719Z,2.00
2017-10-23T01:13:09.783Z,2.10
2017-10-23T01:15:44.345Z,2.10
2017-10-23T01:18:17.469Z,2.50
2017-10-23T01:20:51.453Z,1.80
2017-10-23T01:23:24.263Z,2.47
2017-10-23T01:25:59.208Z,2.80
2017-10-23T01:28:30.647Z,2.50
2017-10-23T01:31:04.918Z,2.70
2017-10-23T01:33:36.760Z,2.60
2017-10-23T01:36:08.922Z,2.27
2017-10-23T01:38:43.250Z,2.40
2017-10-23T01:41:16.973Z,2.37
2017-10-23T01:43:49.502Z,2.17
2017-10-23T01:46:20.975Z,2.07
2017-10-23T01:48:55.298Z,2.30
2017-10-23T01:51:28.468Z,2.13
2017-10-23T01:54:03.049Z,2.60
2017-10-23T01:56:40.015Z,2.10
2017-10-23T01:59:12.236Z,2.30
2017-10-23T02:01:43.550Z,1.83
2017-10-23T02:04:15.203Z,2.20
2017-10-23T02:06:46.648Z,2.03
2017-10-23T02:09:22.637Z,1.97
2017-10-23T02:11:56.977Z,2.00
2017-10-23T02:14:28.286Z,2.00
2017-10-23T02:17:03.491Z,2.30
2017-10-23T02:19:34.915Z,2.00
2017-10-23T02:22:11.273Z,2.47
2017-10-23T02:24:42.655Z,2.30
2017-10-23T02:27:14.985Z,2.43
2017-10-23T02:29:47.653Z,2.23
2017-10-23T02:32:21.817Z,2.60
2017-10-23T02:34:55.924Z,2.53
2017-10-23T02:37:28.349Z,2.77
2017-10-23T02:40:01.677Z,2.70
2017-10-23T02:42:35.654Z,3.13
2017-10-23T02:45:10.592Z,2.87
2017-10-23T02:47:43.841Z,2.57
2017-10-23T02:50:30.735Z,2.53
2017-10-23T02:53:08.217Z,2.80
2017-10-23T02:55:43.283Z,2.80
2017-10-23T02:58:20.981Z,2.83
2017-10-23T03:01:01.985Z,3.07
2017-10-23T03:06:47.254Z,3.20
2017-10-23T03:09:19.073Z,2.60
2017-10-23T03:11:51.017Z,3.40
2017-10-23T03:14:22.729Z,3.10
2017-10-23T03:16:54.317Z,3.60
2017-10-23T03:19:25.717Z,3.10
2017-10-23T03:21:57.368Z,3.63
2017-10-23T03:24:28.783Z,3.23
2017-10-23T03:27:00.195Z,3.27
2017-10-23T03:29:31.840Z,3.03
2017-10-23T03:32:04.467Z,2.60
2017-10-23T03:34:36.089Z,3.30
2017-10-23T03:37:07.576Z,2.77
2017-10-23T03:39:39.225Z,3.23
2017-10-23T03:42:10.995Z,3.33
2017-10-23T03:44:43.485Z,3.40
2017-10-23T03:47:15.251Z,2.87
2017-10-23T03:49:46.560Z,3.80
2017-10-23T03:52:17.982Z,3.13
2017-10-23T03:54:49.633Z,2.90
2017-10-23T03:57:21.019Z,2.80
2017-10-23T03:59:52.625Z,3.63
2017-10-23T04:02:24.314Z,2.63
2017-10-23T04:04:55.703Z,2.30
2017-10-23T04:07:27.460Z,2.40
2017-10-23T04:09:58.960Z,2.43
2017-10-23T04:12:30.408Z,2.73
2017-10-23T04:15:02.439Z,2.87
2017-10-23T04:17:33.831Z,2.83
2017-10-23T04:20:06.500Z,3.37
2017-10-23T04:22:38.472Z,2.60
2017-10-23T04:25:09.916Z,3.47
2017-10-23T04:27:42.735Z,4.13
2017-10-23T04:30:14.420Z,4.10
2017-10-23T04:32:45.779Z,4.03
2017-10-23T04:35:17.136Z,4.27
2017-10-23T04:37:48.605Z,4.37
2017-10-23T04:40:20.071Z,3.87
2017-10-23T04:42:51.763Z,3.83
2017-10-23T04:45:23.151Z,3.70
2017-10-23T04:47:54.564Z,4.90
2017-10-23T04:50:25.974Z,4.50
2017-10-23T04:52:57.377Z,6.13
2017-10-23T04:55:29.101Z,4.50
2017-10-23T04:58:00.552Z,5.70
2017-10-23T05:00:32.341Z,4.90
2017-10-23T05:03:04.643Z,4.27
2017-10-23T05:05:36.034Z,3.50
2017-10-23T05:08:07.712Z,4.13
2017-10-23T05:10:39.631Z,4.50
2017-10-23T05:13:11.542Z,4.57
2017-10-23T05:15:44.676Z,4.97
2017-10-23T05:18:16.458Z,5.07
2017-10-23T05:20:47.928Z,6.90
2017-10-23T05:23:19.676Z,6.20
2017-10-23T05:25:51.245Z,5.30
2017-10-23T05:28:22.764Z,5.00
2017-10-23T05:30:54.487Z,5.23
2017-10-23T05:33:25.908Z,4.80
2017-10-23T05:35:57.611Z,4.57
2017-10-23T05:38:29.135Z,5.53
2017-10-23T05:41:00.796Z,4.80
2017-10-23T05:43:32.553Z,5.77
2017-10-23T05:46:04.872Z,6.07
2017-10-23T05:48:36.545Z,5.77
2017-10-23T05:51:07.972Z,4.20
2017-10-23T05:53:40.303Z,3.90
2017-10-23T05:56:12.149Z,5.13
2017-10-23T05:58:44.987Z,4.20
2017-10-23T06:01:16.702Z,4.33
2017-10-23T06:03:48.100Z,3.90
2017-10-23T06:06:19.841Z,5.40
2017-10-23T06:08:52.213Z,5.70
2017-10-23T06:11:24.279Z,4.67
2017-10-23T06:13:57.278Z,5.30
2017-10-23T06:16:29.281Z,4.73
2017-10-23T06:19:04.343Z,5.30
2017-10-23T06:21:35.897Z,5.13
2017-10-23T06:24:07.393Z,5.30
2017-10-23T06:26:40.336Z,4.00
2017-10-23T06:29:11.848Z,3.67
2017-10-23T06:31:44.816Z,2.90
2017-10-23T06:34:16.256Z,3.53
2017-10-23T06:36:47.667Z,3.00
2017-10-23T06:39:19.332Z,4.13
2017-10-23T06:41:51.691Z,3.60
2017-10-23T06:44:23.412Z,3.47
2017-10-23T06:46:54.763Z,2.67
2017-10-23T06:49:27.057Z,3.17
2017-10-23T06:51:58.797Z,2.67
2017-10-23T06:54:31.091Z,2.87
2017-10-23T06:57:03.796Z,3.33
2017-10-23T06:59:35.262Z,3.13
2017-10-23T07:02:07.019Z,2.47
2017-10-23T07:04:38.628Z,2.90
2017-10-23T07:07:10.049Z,2.10
2017-10-23T07:09:43.053Z,3.73
2017-10-23T07:12:14.406Z,2.57
2017-10-23T07:14:47.524Z,2.77
2017-10-23T07:17:18.958Z,2.57
2017-10-23T07:19:50.400Z,2.53
2017-10-23T07:22:22.140Z,2.30
2017-10-23T07:24:53.511Z,2.97
2017-10-23T07:27:25.113Z,2.50
2017-10-23T07:29:56.850Z,3.20
2017-10-23T07:32:28.942Z,2.67
2017-10-23T07:35:00.270Z,3.50
2017-10-23T07:37:31.913Z,2.93
2017-10-23T07:40:04.240Z,2.70
2017-10-23T07:45:20.925Z,2.80
2017-10-23T07:47:52.250Z,2.47
2017-10-23T07:50:23.970Z,2.53
2017-10-23T07:52:55.563Z,2.80
2017-10-23T07:55:26.942Z,2.63
2017-10-23T07:57:58.667Z,2.50
2017-10-23T08:00:30.064Z,2.40
2017-10-23T08:03:03.363Z,2.20
2017-10-23T08:05:34.983Z,2.77
2017-10-23T08:08:06.560Z,3.37
2017-10-23T08:10:38.375Z,2.40
2017-10-23T08:13:11.503Z,2.83
2017-10-23T08:15:45.414Z,2.43
2017-10-23T08:20:57.698Z,2.70
2017-10-23T08:23:32.144Z,2.23
2017-10-23T08:26:05.406Z,3.30
2017-10-23T08:28:37.089Z,2.70
2017-10-23T08:31:08.459Z,2.90
2017-10-23T08:33:41.319Z,3.27
2017-10-23T08:36:12.718Z,3.20
2017-10-23T08:38:46.034Z,3.07
2017-10-23T08:41:17.695Z,2.83
2017-10-23T08:43:49.235Z,1.70
2017-10-23T08:46:21.022Z,2.20
2017-10-23T08:48:52.704Z,2.53
2017-10-23T08:51:24.685Z,2.50
2017-10-23T08:53:57.222Z,2.27
2017-10-23T08:56:28.614Z,2.83
2017-10-23T08:59:00.103Z,2.50
2017-10-23T09:01:31.798Z,2.80
2017-10-23T09:04:04.129Z,2.50
2017-10-23T09:06:35.770Z,3.83
2017-10-23T09:09:07.685Z,2.80
2017-10-23T09:19:47.017Z,2.63
2017-10-23T09:22:18.329Z,2.03
2017-10-23T09:24:50.188Z,2.57
2017-10-23T09:27:21.574Z,2.40
2017-10-23T09:29:52.884Z,1.97
2017-10-23T09:32:25.358Z,2.60
2017-10-23T09:34:57.574Z,2.73
2017-10-23T09:37:29.209Z,1.83
2017-10-23T09:40:00.825Z,2.20
2017-10-23T09:42:32.320Z,2.00
2017-10-23T09:45:08.062Z,2.80
2017-10-23T09:47:40.920Z,2.63
2017-10-23T09:50:12.856Z,2.40
2017-10-23T09:52:45.613Z,2.50
2017-10-23T09:55:16.945Z,2.07
2017-10-23T09:57:49.829Z,1.93
2017-10-23T10:00:21.207Z,2.10
2017-10-23T10:02:52.922Z,3.20
2017-10-23T10:05:24.817Z,2.93
2017-10-23T10:07:56.179Z,3.10
2017-10-23T10:16:54.759Z,2.27
2017-10-23T10:19:28.434Z,1.53
2017-10-23T10:22:00.287Z,1.83
2017-10-23T10:24:32.335Z,2.00
2017-10-23T10:27:07.572Z,2.20
2017-10-23T10:29:39.118Z,1.70
2017-10-23T10:32:10.896Z,2.17
2017-10-23T10:34:42.891Z,2.10
2017-10-23T10:37:15.387Z,1.90
2017-10-23T10:39:47.073Z,2.20
2017-10-23T10:51:24.519Z,2.67
2017-10-23T10:53:55.930Z,2.57
2017-10-23T10:56:27.592Z,2.57
2017-10-23T10:58:58.945Z,1.90
2017-10-23T11:01:30.310Z,1.73
2017-10-23T11:04:02.916Z,2.57
2017-10-23T11:06:34.335Z,2.33
2017-10-23T11:09:08.248Z,2.10
2017-10-23T11:14:44.669Z,2.87
2017-10-23T11:17:16.593Z,1.97
2017-10-23T11:19:48.258Z,1.83
2017-10-23T11:22:19.608Z,2.03
2017-10-23T11:24:51.313Z,1.93
2017-10-23T11:27:22.647Z,1.90
2017-10-23T11:29:54.689Z,1.97
2017-10-23T11:32:26.348Z,2.00
2017-10-23T11:34:57.832Z,2.17
2017-10-23T11:40:34.766Z,1.93
2017-10-23T11:43:06.421Z,1.60
2017-10-23T11:45:38.151Z,1.97
2017-10-23T11:48:09.478Z,2.00
2017-10-23T11:50:40.800Z,1.63
2017-10-23T11:53:12.663Z,1.90
2017-10-23T11:55:44.980Z,1.87
2017-10-23T11:58:17.255Z,2.10
2017-10-23T12:00:49.023Z,1.93
2017-10-23T12:03:20.368Z,1.97
2017-10-23T12:05:51.757Z,2.13
2017-10-23T12:08:23.746Z,1.70
2017-10-23T12:14:00.569Z,2.23
2017-10-23T12:16:32.314Z,1.67
2017-10-23T12:19:04.374Z,1.90
2017-10-23T12:21:35.708Z,1.93
2017-10-23T12:24:09.609Z,2.10
2017-10-23T12:26:41.307Z,1.60
2017-10-23T12:29:12.708Z,1.80
2017-10-23T12:31:44.214Z,2.20
2017-10-23T12:34:16.186Z,2.03
2017-10-23T12:36:47.582Z,2.50
2017-10-23T12:39:19.210Z,2.37
2017-10-23T12:41:51.245Z,2.10
2017-10-23T12:44:24.973Z,1.83
2017-10-23T12:46:56.762Z,1.60
2017-10-23T12:49:28.884Z,1.67
2017-10-23T12:52:02.180Z,1.37
2017-10-23T12:54:34.579Z,1.97
2017-10-23T12:57:06.076Z,1.97
2017-10-23T12:59:37.651Z,2.00
2017-10-23T13:02:10.250Z,1.37
2017-10-23T13:04:42.168Z,2.00
2017-10-23T13:07:26.194Z,2.40
2017-10-23T13:15:49.379Z,2.23
2017-10-23T13:18:20.892Z,1.87
2017-10-23T13:20:53.055Z,1.90
2017-10-23T13:23:25.501Z,1.70
2017-10-23T13:26:06.669Z,2.03
2017-10-23T13:31:43.435Z,2.23
2017-10-23T13:34:15.524Z,1.73
2017-10-23T13:36:47.217Z,2.13
2017-10-23T13:39:18.571Z,1.70
2017-10-23T13:41:49.951Z,1.77
2017-10-23T13:44:21.405Z,1.57
2017-10-23T13:46:52.978Z,2.57
2017-10-23T13:49:24.614Z,2.20
2017-10-23T13:51:56.573Z,2.20
2017-10-23T13:54:27.961Z,1.93
2017-10-23T13:57:00.448Z,1.77
2017-10-23T13:59:31.788Z,2.27
2017-10-23T14:02:05.448Z,2.60
2017-10-23T14:04:37.172Z,2.00
2017-10-23T14:07:08.694Z,2.17
2017-10-23T14:18:27.916Z,1.63
2017-10-23T14:21:01.215Z,1.77
2017-10-23T14:23:33.940Z,2.00
2017-10-23T14:26:06.492Z,1.60
2017-10-23T14:28:39.205Z,1.77
2017-10-23T14:31:11.986Z,2.50
2017-10-23T14:33:43.461Z,2.50
2017-10-23T14:36:15.881Z,2.20
2017-10-23T14:38:48.510Z,1.73
2017-10-23T14:41:20.060Z,1.80
2017-10-23T14:43:52.594Z,1.73
2017-10-23T14:46:24.368Z,1.90
2017-10-23T14:48:58.388Z,2.80
2017-10-23T14:51:30.207Z,2.40
2017-10-23T14:54:03.089Z,2.30
2017-10-23T14:56:34.557Z,1.90
2017-10-23T14:59:07.302Z,2.23
2017-10-23T15:01:38.799Z,2.50
2017-10-23T15:04:11.454Z,2.93
2017-10-23T15:06:42.861Z,3.00
2017-10-23T15:09:14.525Z,2.70
2017-10-23T15:11:46.193Z,1.90
2017-10-23T15:14:17.607Z,2.50
2017-10-23T15:16:48.949Z,2.20
2017-10-23T15:19:20.886Z,2.60
2017-10-23T15:21:53.950Z,2.77
2017-10-23T15:24:25.785Z,2.13
2017-10-23T15:26:59.473Z,2.10
2017-10-23T15:29:31.081Z,3.17
2017-10-23T15:32:03.924Z,2.40
2017-10-23T15:34:35.573Z,2.20
2017-10-23T15:37:07.189Z,2.20
2017-10-23T15:39:38.879Z,1.60
2017-10-23T15:42:10.273Z,2.30
2017-10-23T15:44:42.869Z,1.90
2017-10-23T15:47:14.321Z,2.27
2017-10-23T15:49:46.159Z,2.27
2017-10-23T15:52:17.543Z,2.23
2017-10-23T15:54:48.884Z,2.50
2017-10-23T15:57:20.661Z,2.23
2017-10-23T15:59:52.580Z,1.80
2017-10-23T16:02:24.143Z,1.87
2017-10-23T16:04:58.539Z,2.10
2017-10-23T16:07:30.000Z,2.60
2017-10-23T16:16:07.265Z,2.00
2017-10-23T16:18:38.564Z,2.03
2017-10-23T16:21:10.245Z,2.10
2017-10-23T16:23:41.565Z,2.80
2017-10-23T16:26:12.981Z,2.53
2017-10-23T16:28:44.605Z,2.63
2017-10-23T16:34:17.580Z,2.23
2017-10-23T16:36:48.991Z,3.00
2017-10-23T16:39:20.609Z,2.20
2017-10-23T16:41:52.008Z,2.73
2017-10-23T16:44:23.392Z,2.00
2017-10-23T16:46:55.033Z,2.73
2017-10-23T16:49:26.447Z,2.77
2017-10-23T16:51:58.107Z,2.70
2017-10-23T16:54:29.917Z,2.50
2017-10-23T16:57:03.748Z,2.20
2017-10-23T16:59:35.366Z,3.00
2017-10-23T17:02:06.729Z,2.70
2017-10-23T17:04:38.637Z,3.00
2017-10-23T17:07:10.876Z,2.97
2017-10-23T17:09:42.383Z,2.90
2017-10-23T17:12:15.840Z,2.50
2017-10-23T17:14:47.152Z,2.40
2017-10-23T17:17:18.517Z,3.53
2017-10-23T17:19:49.836Z,2.60
2017-10-23T17:22:21.295Z,3.13
2017-10-23T17:24:53.732Z,2.87
2017-10-23T17:27:25.137Z,2.67
2017-10-23T17:29:56.823Z,3.40
2017-10-23T17:32:28.204Z,3.77
2017-10-23T17:35:02.369Z,3.37
2017-10-23T17:37:33.755Z,2.80
2017-10-23T17:40:06.243Z,3.47
2017-10-23T17:42:37.954Z,3.40
2017-10-23T17:45:09.298Z,2.93
2017-10-23T17:47:40.760Z,2.90
2017-10-23T17:50:12.612Z,3.93
2017-10-23T17:52:43.968Z,3.33
2017-10-23T17:55:15.300Z,3.20
2017-10-23T17:57:47.028Z,3.00
2017-10-23T18:00:19.242Z,4.03
2017-10-23T18:02:50.859Z,3.13
2017-10-23T18:05:22.366Z,3.80
2017-10-23T18:07:53.695Z,3.80
2017-10-23T18:16:22.318Z,3.77
2017-10-23T18:18:54.883Z,3.67
2017-10-23T18:21:27.223Z,4.37
2017-10-23T18:23:59.234Z,4.23
2017-10-23T18:26:30.700Z,4.20
2017-10-23T18:29:02.704Z,4.30
2017-10-23T18:31:46.788Z,4.37
2017-10-23T18:34:56.012Z,4.83
2017-10-23T18:37:27.575Z,4.80
2017-10-23T18:39:58.976Z,4.03
2017-10-23T18:42:30.711Z,4.90
2017-10-23T18:45:02.744Z,4.60
2017-10-23T18:47:34.371Z,4.33
2017-10-23T18:50:06.958Z,4.20
2017-10-23T18:52:38.459Z,4.50
2017-10-23T18:58:25.763Z,5.03
2017-10-23T19:00:57.915Z,5.57
2017-10-23T19:03:29.995Z,4.70
2017-10-23T19:06:01.688Z,5.77
2017-10-23T19:08:34.519Z,5.00
2017-10-23T19:17:17.483Z,7.17
2017-10-23T19:19:48.896Z,6.03
2017-10-23T19:22:20.719Z,5.30
2017-10-23T19:24:52.572Z,6.07
2017-10-23T19:27:24.228Z,5.33
2017-10-23T19:29:55.705Z,6.33
2017-10-23T19:32:27.663Z,5.60
2017-10-23T19:34:59.277Z,5.60
2017-10-23T19:37:30.834Z,4.87
2017-10-23T19:43:52.832Z,6.80
2017-10-23T19:49:29.849Z,6.27
2017-10-23T19:52:01.240Z,5.90
2017-10-23T19:56:55.757Z,6.13
2017-10-23T19:59:27.528Z,5.60
2017-10-23T20:01:58.891Z,6.30
2017-10-23T20:04:31.573Z,5.80
2017-10-23T20:10:11.148Z,6.93
2017-10-23T20:12:42.659Z,6.07
2017-10-23T20:15:16.377Z,5.77
2017-10-23T20:17:48.031Z,5.57
2017-10-23T20:20:20.987Z,5.37
2017-10-23T20:22:54.012Z,6.00
2017-10-23T20:25:25.704Z,5.83
2017-10-23T20:27:57.206Z,5.57
2017-10-23T20:30:29.853Z,5.80
2017-10-23T20:33:03.354Z,6.00
2017-10-23T20:35:36.590Z,5.10
2017-10-23T20:38:08.115Z,4.93
2017-10-23T20:40:39.596Z,4.97
2017-10-23T20:43:13.169Z,4.27
2017-10-23T20:45:45.155Z,6.20
2017-10-23T20:48:17.058Z,5.40
2017-10-23T20:50:49.284Z,4.27
2017-10-23T20:53:21.633Z,6.30
2017-10-23T20:55:53.599Z,5.40
2017-10-23T20:58:25.359Z,4.97
2017-10-23T21:00:56.750Z,5.63
2017-10-23T21:03:30.340Z,4.20
2017-10-23T21:06:07.685Z,4.70
2017-10-23T21:08:39.662Z,4.13
2017-10-23T21:11:12.231Z,5.90
2017-10-23T21:13:44.786Z,5.90
2017-10-23T21:16:18.181Z,4.97
2017-10-23T21:18:50.085Z,5.67
2017-10-23T21:21:21.483Z,4.97
2017-10-23T21:23:53.017Z,5.17
2017-10-23T21:26:24.520Z,3.63
2017-10-23T21:28:56.147Z,4.00
2017-10-23T21:31:28.722Z,3.40
2017-10-23T21:34:04.260Z,3.80
2017-10-23T21:36:35.599Z,2.97
2017-10-23T21:39:07.075Z,3.37
2017-10-23T21:41:38.818Z,2.67
2017-10-23T21:44:12.785Z,4.80
2017-10-23T21:46:53.104Z,2.93
2017-10-23T21:49:24.492Z,2.40
2017-10-23T21:51:56.203Z,3.50
2017-10-23T21:54:27.743Z,3.03
2017-10-23T21:56:59.913Z,3.30
2017-10-23T21:59:32.875Z,3.07
2017-10-23T22:02:06.498Z,3.03
2017-10-23T22:04:39.209Z,2.67
2017-10-23T22:07:15.172Z,2.80
2017-10-23T22:09:49.671Z,2.57
2017-10-23T22:12:21.693Z,3.00
2017-10-23T22:14:55.539Z,2.87
2017-10-23T22:17:27.354Z,2.57
2017-10-23T22:20:03.959Z,2.50
2017-10-23T22:22:37.213Z,2.63
2017-10-23T22:25:10.094Z,2.43
2017-10-23T22:27:44.533Z,2.40
2017-10-23T22:30:38.457Z,2.90
2017-10-23T22:33:16.290Z,3.30
2017-10-23T22:35:51.313Z,2.70
2017-10-23T22:38:23.809Z,3.30
2017-10-23T22:40:55.715Z,3.97
2017-10-23T22:43:29.566Z,3.57
2017-10-23T22:46:07.686Z,2.90
2017-10-23T22:48:40.174Z,3.50
2017-10-23T22:51:12.998Z,4.00
2017-10-23T22:53:45.853Z,3.43
2017-10-23T22:56:21.513Z,4.60
2017-10-23T22:58:53.178Z,3.77
2017-10-23T23:01:27.816Z,3.60
2017-10-23T23:04:03.850Z,3.90
2017-10-23T23:06:36.870Z,3.80
2017-10-23T23:09:11.481Z,3.73
2017-10-23T23:11:43.555Z,3.80
2017-10-23T23:14:17.728Z,3.20
2017-10-23T23:16:49.895Z,4.30
2017-10-23T23:19:24.096Z,4.10
2017-10-23T23:21:56.961Z,5.33
2017-10-23T23:24:32.682Z,4.80
2017-10-23T23:27:06.021Z,4.40
2017-10-23T23:32:11.240Z,4.33
2017-10-23T23:34:42.602Z,4.10
2017-10-23T23:37:19.244Z,4.50
2017-10-23T23:39:51.362Z,5.60
2017-10-23T23:42:28.012Z,6.23
2017-10-23T23:45:02.691Z,6.20
2017-10-23T23:47:37.467Z,5.70
2017-10-23T23:50:11.958Z,5.20
2017-10-23T23:52:44.482Z,6.60
2017-10-23T23:55:17.608Z,7.50
2017-10-23T23:57:54.685Z,6.47
